Time;durP1;ratioP1;P1;durP2;ratioP2;P2;SDS_P1;SDS_P2;PMS_P1;PMS_P2;Temp;Humidity;BMP_temperature;BMP_pressure;BME280_temperature;BME280_humidity;BME280_pressure;Samples;Min_cycle;Max_cycle;Signal;HPM_P1;HPM_P2
2022/04/04 00:01:07;;;;;;;;;;;;;;;21.09;37.43;100998.31;4975684;28;5335;-59
2022/04/04 00:03:33;;;;;;;;;;;;;;;21.06;37.48;100994.59;4976539;28;4292;-58
2022/04/04 00:06:00;;;;;;;;;;;;;;;21.06;37.45;100994.59;4977696;28;4241;-59
2022/04/04 00:08:27;;;;;;;;;;;;;;;21.04;37.34;100990.91;4979409;28;4771;-59
2022/04/04 00:10:54;;;;;;;;;;;;;;;21.07;37.57;100989.59;4978147;28;4229;-59
2022/04/04 00:13:21;;;;;;;;;;;;;;;21.09;37.31;100992.56;4978175;28;5240;-59
2022/04/04 00:15:48;;;;;;;;;;;;;;;21.10;37.39;100994.06;4977557;28;4188;-59
2022/04/04 00:18:15;;;;;;;;;;;;;;;21.09;37.41;100987.53;4974989;28;4433;-59
2022/04/04 00:20:41;;;;;;;;;;;;;;;21.07;37.47;100980.94;4978559;28;4244;-59
2022/04/04 00:23:12;;;;;;;;;;;;;;;21.08;37.47;100985.34;4974018;28;6271;-59
2022/04/04 00:25:39;;;;;;;;;;;;;;;21.08;37.50;100985.34;4979273;28;5325;-59
2022/04/04 00:28:05;;;;;;;;;;;;;;;21.08;37.52;100988.22;4975202;28;5252;-60
2022/04/04 00:30:31;;;;;;;;;;;;;;;21.09;37.42;100978.16;4973999;28;4480;-59
2022/04/04 00:32:58;;;;;;;;;;;;;;;21.09;37.34;100981.03;4975323;28;4466;-59
2022/04/04 00:35:24;;;;;;;;;;;;;;;21.09;37.28;100981.03;4971902;28;4518;-59
2022/04/04 00:37:54;;;;;;;;;;;;;;;21.05;37.44;100978.75;4976277;28;4246;-58
2022/04/04 00:40:20;;;;;;;;;;;;;;;21.08;37.30;100974.53;4974694;28;6485;-59
2022/04/04 00:42:46;;;;;;;;;;;;;;;21.06;37.40;100979.47;4978692;28;4317;-58
2022/04/04 00:45:13;;;;;;;;;;;;;;;21.01;37.52;100974.94;4974238;28;4144;-59
2022/04/04 00:47:39;;;;;;;;;;;;;;;21.03;37.41;100977.91;4979179;28;4588;-58
2022/04/04 00:50:06;;;;;;;;;;;;;;;21.03;37.53;100972.16;4975879;28;5305;-59
2022/04/04 00:52:33;;;;;;;;;;;;;;;21.03;37.51;100977.91;4977826;28;4199;-59
2022/04/04 00:54:59;;;;;;;;;;;;;;;21.05;37.36;100975.09;4976817;28;4331;-59
2022/04/04 00:57:26;;;;;;;;;;;;;;;21.03;37.43;100969.28;4972343;28;4111;-59
2022/04/04 00:59:52;;;;;;;;;;;;;;;21.06;37.48;100973.72;4974319;28;3967;-59
2022/04/04 01:02:19;;;;;;;;;;;;;;;21.07;37.48;100961.56;4972688;28;4114;-59
2022/04/04 01:04:46;;;;;;;;;;;;;;;21.09;37.31;100958.75;4974442;28;4271;-58
2022/04/04 01:07:12;;;;;;;;;;;;;;;21.09;37.37;100964.50;4977179;28;4515;-59
2022/04/04 01:09:39;;;;;;;;;;;;;;;21.11;37.23;100958.09;4978405;28;4009;-59
2022/04/04 01:12:09;;;;;;;;;;;;;;;21.09;37.33;100958.00;4974359;28;4242;-58
2022/04/04 01:14:35;;;;;;;;;;;;;;;21.08;37.30;100950.78;4975432;28;4328;-59
2022/04/04 01:17:02;;;;;;;;;;;;;;;21.01;37.34;100949.03;4970874;28;5167;-59
2022/04/04 01:19:28;;;;;;;;;;;;;;;21.04;37.46;100944.84;4974758;28;4357;-59
2022/04/04 01:21:54;;;;;;;;;;;;;;;21.06;37.38;100948.53;4977418;28;4148;-59
2022/04/04 01:24:21;;;;;;;;;;;;;;;21.02;37.35;100941.88;4973508;28;4087;-59
2022/04/04 01:26:48;;;;;;;;;;;;;;;21.00;37.50;100938.88;4975622;28;4266;-59
2022/04/04 01:29:14;;;;;;;;;;;;;;;21.04;37.45;100939.81;4970810;28;4252;-59
2022/04/04 01:31:40;;;;;;;;;;;;;;;21.03;37.39;100944.09;4971914;28;4517;-59
2022/04/04 01:34:07;;;;;;;;;;;;;;;21.02;37.31;100924.59;4970723;28;4622;-59
2022/04/04 01:36:33;;;;;;;;;;;;;;;21.02;37.31;100936.09;4973578;28;4272;-59
2022/04/04 01:39:00;;;;;;;;;;;;;;;21.01;37.34;100935.38;4972230;28;5176;-60
2022/04/04 01:41:27;;;;;;;;;;;;;;;21.03;37.30;100937.59;4976331;28;4330;-59
2022/04/04 01:43:53;;;;;;;;;;;;;;;21.04;37.43;100928.28;4974492;28;4149;-58
2022/04/04 01:46:26;;;;;;;;;;;;;;;21.05;37.33;100929.78;4976478;28;4634;-59
2022/04/04 01:48:54;;;;;;;;;;;;;;;21.03;37.30;100926.09;4976052;28;4134;-59
2022/04/04 01:51:20;;;;;;;;;;;;;;;21.02;37.35;100930.34;4975957;28;4134;-59
2022/04/04 01:53:47;;;;;;;;;;;;;;;21.00;37.40;100922.34;4972279;28;4084;-59
2022/04/04 01:56:13;;;;;;;;;;;;;;;20.98;37.55;100918.63;4974719;28;4150;-59
2022/04/04 01:58:39;;;;;;;;;;;;;;;20.99;37.42;100920.13;4973482;28;5524;-59
2022/04/04 02:01:13;;;;;;;;;;;;;;;21.01;37.42;100918.09;4974180;28;4183;-59
2022/04/04 02:03:40;;;;;;;;;;;;;;;21.02;37.48;100918.84;4972935;28;4159;-58
2022/04/04 02:06:06;;;;;;;;;;;;;;;21.01;37.31;100911.59;4977007;28;4121;-59
2022/04/04 02:08:33;;;;;;;;;;;;;;;20.98;37.43;100907.88;4977172;28;4234;-59
2022/04/04 02:10:59;;;;;;;;;;;;;;;21.00;37.23;100905.06;4974565;28;4013;-59
2022/04/04 02:13:27;;;;;;;;;;;;;;;21.01;37.42;100900.09;4974781;28;4158;-58
2022/04/04 02:15:53;;;;;;;;;;;;;;;21.01;37.41;100894.31;4975041;28;4606;-58
2022/04/04 02:18:20;;;;;;;;;;;;;;;21.00;37.34;100896.44;4973954;28;4174;-59
2022/04/04 02:20:46;;;;;;;;;;;;;;;20.99;37.51;100892.09;4977852;28;4230;-58
2022/04/04 02:23:17;;;;;;;;;;;;;;;21.02;37.35;100890.03;4969512;28;4177;-59
2022/04/04 02:25:45;;;;;;;;;;;;;;;21.01;37.27;100885.69;4975093;28;5364;-59
2022/04/04 02:28:13;;;;;;;;;;;;;;;21.00;37.30;100887.06;4973843;28;4574;-59
2022/04/04 02:30:40;;;;;;;;;;;;;;;20.91;37.48;100874.44;4974103;28;4175;-59
2022/04/04 02:33:06;;;;;;;;;;;;;;;20.96;37.40;100881.13;4973319;28;5316;-59
2022/04/04 02:35:33;;;;;;;;;;;;;;;20.97;37.46;100871.84;4977551;28;4041;-59
2022/04/04 02:38:00;;;;;;;;;;;;;;;20.99;37.32;100876.97;4975911;28;4299;-59
2022/04/04 02:40:26;;;;;;;;;;;;;;;20.97;37.42;100871.84;4967970;28;5237;-59
2022/04/04 02:42:52;;;;;;;;;;;;;;;20.96;37.29;100861.75;4973210;28;4143;-59
2022/04/04 02:45:19;;;;;;;;;;;;;;;20.97;37.32;100865.34;4975271;28;4183;-59
2022/04/04 02:47:45;;;;;;;;;;;;;;;20.95;37.35;100854.47;4973486;28;4209;-59
2022/04/04 02:50:11;;;;;;;;;;;;;;;20.98;37.20;100853.19;4974786;28;5315;-59
2022/04/04 02:52:39;;;;;;;;;;;;;;;20.98;37.38;100849.56;4977869;28;4097;-58
2022/04/04 02:57:50;;;;;;;;;;;;;;;20.95;37.43;100850.88;4975801;28;5837;-59
2022/04/04 03:00:20;;;;;;;;;;;;;;;20.97;37.36;100845.19;4973660;28;4217;-59
2022/04/04 03:02:46;;;;;;;;;;;;;;;20.95;37.48;100836.47;4972952;28;5324;-58
2022/04/04 03:05:13;;;;;;;;;;;;;;;20.92;37.56;100847.16;4977264;28;4529;-59
2022/04/04 03:07:39;;;;;;;;;;;;;;;20.95;37.47;100839.34;4980954;28;4305;-59
2022/04/04 03:10:06;;;;;;;;;;;;;;;20.96;37.42;100837.94;4977549;28;4151;-59
2022/04/04 03:12:32;;;;;;;;;;;;;;;21.03;37.41;100834.69;4979106;28;4333;-58
2022/04/04 03:14:58;;;;;;;;;;;;;;;21.01;37.54;100831.00;4976780;28;4298;-59
2022/04/04 03:17:25;;;;;;;;;;;;;;;21.02;37.26;100826.69;4977592;28;4080;-59
2022/04/04 03:19:52;;;;;;;;;;;;;;;21.02;37.47;100826.69;4977266;28;4306;-59
2022/04/04 03:22:18;;;;;;;;;;;;;;;20.96;37.62;100818.56;4970936;28;5495;-58
2022/04/04 03:24:44;;;;;;;;;;;;;;;20.99;37.44;100817.25;4969519;28;4290;-59
2022/04/04 03:27:14;;;;;;;;;;;;;;;20.99;37.35;100813.63;4980510;28;4765;-59
2022/04/04 03:29:40;;;;;;;;;;;;;;;20.97;37.45;100819.28;4976790;28;4139;-59
2022/04/04 03:32:07;;;;;;;;;;;;;;;21.00;37.58;100817.97;4977049;28;4166;-58
2022/04/04 03:34:33;;;;;;;;;;;;;;;20.97;37.43;100807.78;4979846;28;4141;-59
2022/04/04 03:36:59;;;;;;;;;;;;;;;21.00;37.45;100812.22;4980571;28;4385;-64
2022/04/04 03:39:26;;;;;;;;;;;;;;;20.96;37.58;100809.16;4975210;28;4342;-59
2022/04/04 03:41:54;;;;;;;;;;;;;;;20.95;37.45;100807.69;4976885;28;4117;-59
2022/04/04 03:44:20;;;;;;;;;;;;;;;20.98;37.56;100792.75;4976458;28;4163;-59
2022/04/04 03:46:46;;;;;;;;;;;;;;;20.96;37.60;100789.00;4980879;28;4256;-59
2022/04/04 03:49:13;;;;;;;;;;;;;;;20.97;37.50;100799.16;4979335;28;5476;-58
2022/04/04 03:51:39;;;;;;;;;;;;;;;20.96;37.72;100783.25;4976651;28;4268;-59
2022/04/04 03:54:07;;;;;;;;;;;;;;;20.91;37.82;100777.34;4977395;28;5438;-59
2022/04/04 03:56:34;;;;;;;;;;;;;;;20.95;37.66;100781.78;4981052;28;5655;-59
2022/04/04 03:59:04;;;;;;;;;;;;;;;20.89;37.80;100780.13;4980666;28;4510;-58
2022/04/04 04:01:30;;;;;;;;;;;;;;;20.92;37.70;100775.94;4974545;28;4183;-59
2022/04/04 04:03:57;;;;;;;;;;;;;;;20.95;37.55;100773.16;4976934;28;4239;-59
2022/04/04 04:06:23;;;;;;;;;;;;;;;20.97;37.64;100770.34;4973389;28;4194;-59
2022/04/04 04:08:49;;;;;;;;;;;;;;;20.95;37.71;100762.38;4977421;28;4045;-59
2022/04/04 04:11:16;;;;;;;;;;;;;;;20.94;37.87;100763.78;4978711;28;4246;-59
2022/04/04 04:13:46;;;;;;;;;;;;;;;20.97;37.62;100750.22;4979110;28;4204;-59
2022/04/04 04:16:13;;;;;;;;;;;;;;;20.93;37.67;100756.53;4977844;28;4086;-59
2022/04/04 04:18:40;;;;;;;;;;;;;;;20.95;37.70;100761.63;4974075;28;4140;-59
2022/04/04 04:21:06;;;;;;;;;;;;;;;20.92;37.66;100747.16;4974543;28;4441;-59
2022/04/04 04:23:39;;;;;;;;;;;;;;;20.94;37.73;100743.63;4977513;28;4474;-59
2022/04/04 04:26:06;;;;;;;;;;;;;;;21.00;37.63;100743.13;4974033;28;4548;-59
2022/04/04 04:28:32;;;;;;;;;;;;;;;20.98;37.70;100740.16;4977552;28;5487;-59
2022/04/04 04:30:59;;;;;;;;;;;;;;;20.99;37.53;100735.91;4976806;28;4570;-59
2022/04/04 04:33:26;;;;;;;;;;;;;;;20.97;37.51;100739.44;4980487;28;4130;-59
2022/04/04 04:35:52;;;;;;;;;;;;;;;20.98;37.66;100735.16;4975000;28;5807;-59
2022/04/04 04:38:19;;;;;;;;;;;;;;;21.00;37.59;100732.34;4978599;28;4185;-59
2022/04/04 04:40:45;;;;;;;;;;;;;;;20.98;37.63;100734.41;4980198;28;4414;-59
2022/04/04 04:43:11;;;;;;;;;;;;;;;20.98;37.60;100723.66;4978312;28;4155;-59
2022/04/04 04:45:38;;;;;;;;;;;;;;;20.98;37.51;100722.88;4973661;28;4602;-59
2022/04/04 04:48:05;;;;;;;;;;;;;;;20.96;37.60;100725.69;4968381;28;4393;-60
2022/04/04 04:50:32;;;;;;;;;;;;;;;20.95;37.63;100724.22;4975474;28;4336;-60
2022/04/04 04:52:59;;;;;;;;;;;;;;;20.97;37.69;100721.41;4977215;28;4188;-59
2022/04/04 04:55:25;;;;;;;;;;;;;;;21.00;37.60;100714.34;4974482;28;4312;-59
2022/04/04 04:57:53;;;;;;;;;;;;;;;21.02;37.54;100717.31;4978376;28;4176;-59
2022/04/04 05:00:19;;;;;;;;;;;;;;;21.04;37.48;100708.75;4976941;28;4139;-59
2022/04/04 05:02:47;;;;;;;;;;;;;;;21.01;37.60;100705.06;4976208;28;4230;-59
2022/04/04 05:05:14;;;;;;;;;;;;;;;21.03;37.57;100713.06;4972186;28;4283;-59
2022/04/04 05:07:40;;;;;;;;;;;;;;;21.00;37.84;100705.72;4975728;28;5265;-59
2022/04/04 05:10:06;;;;;;;;;;;;;;;21.00;37.76;100697.06;4975704;28;4593;-59
2022/04/04 05:12:33;;;;;;;;;;;;;;;21.01;37.74;100695.69;4978146;28;4102;-59
2022/04/04 05:14:59;;;;;;;;;;;;;;;21.00;37.60;100691.31;4975000;28;4096;-59
2022/04/04 05:17:26;;;;;;;;;;;;;;;21.03;37.58;100685.00;4974572;28;4081;-59
2022/04/04 05:19:57;;;;;;;;;;;;;;;21.05;37.60;100687.97;4973411;28;4170;-58
2022/04/04 05:22:23;;;;;;;;;;;;;;;21.07;37.52;100676.53;4974192;28;4232;-58
2022/04/04 05:24:49;;;;;;;;;;;;;;;21.05;37.92;100684.31;4973488;28;4699;-57
2022/04/04 05:27:16;;;;;;;;;;;;;;;21.07;38.21;100684.41;4972542;28;4310;-55
2022/04/04 05:29:43;;;;;;;;;;;;;;;21.06;38.33;100685.81;4970856;28;4193;-57
2022/04/04 05:32:09;;;;;;;;;;;;;;;20.96;37.36;100682.50;4973252;28;4107;-58
2022/04/04 05:34:36;;;;;;;;;;;;;;;20.67;35.86;100672.72;4971462;28;4240;-57
2022/04/04 05:37:04;;;;;;;;;;;;;;;20.76;35.71;100673.78;4974145;28;4623;-57
2022/04/04 05:39:30;;;;;;;;;;;;;;;20.90;36.84;100671.50;4973990;28;4312;-57
2022/04/04 05:41:57;;;;;;;;;;;;;;;20.95;37.56;100667.38;4971628;28;4226;-59
2022/04/04 05:44:24;;;;;;;;;;;;;;;20.99;37.86;100670.44;4972450;28;3998;-62
2022/04/04 05:46:51;;;;;;;;;;;;;;;20.98;38.15;100668.19;4957729;28;4253;-61
2022/04/04 05:49:18;;;;;;;;;;;;;;;21.11;38.27;100665.16;4971180;28;4309;-59
2022/04/04 05:51:44;;;;;;;;;;;;;;;21.12;38.54;100668.78;4973217;28;4559;-60
2022/04/04 05:54:27;;;;;;;;;;;;;;;21.12;38.62;100663.03;4962369;28;4211;-59
2022/04/04 05:56:53;;;;;;;;;;;;;;;21.12;38.83;100663.03;4960231;28;4231;-59
2022/04/04 05:59:22;;;;;;;;;;;;;;;21.14;38.81;100665.97;4962035;28;5231;-59
2022/04/04 06:01:49;;;;;;;;;;;;;;;21.16;38.59;100656.69;4959664;28;4152;-59
2022/04/04 06:04:15;;;;;;;;;;;;;;;21.15;38.53;100650.19;4968851;28;4254;-60
2022/04/04 06:06:42;;;;;;;;;;;;;;;21.10;38.82;100654.31;4962772;28;4078;-58
2022/04/04 06:09:08;;;;;;;;;;;;;;;21.08;38.53;100639.84;4968793;28;4326;-58
2022/04/04 06:11:35;;;;;;;;;;;;;;;21.11;38.40;100644.25;4973567;28;4062;-59
2022/04/04 06:14:01;;;;;;;;;;;;;;;21.12;38.45;100634.97;4971649;28;4497;-59
2022/04/04 06:16:28;;;;;;;;;;;;;;;21.12;38.34;100634.25;4972349;28;4164;-58
2022/04/04 06:18:55;;;;;;;;;;;;;;;21.14;38.36;100631.41;4975349;28;4175;-58
2022/04/04 06:21:21;;;;;;;;;;;;;;;21.15;38.49;100630.03;4976041;28;5095;-58
2022/04/04 06:23:47;;;;;;;;;;;;;;;21.15;38.31;100637.94;4973073;28;4139;-58
2022/04/04 06:26:14;;;;;;;;;;;;;;;21.15;38.40;100627.16;4974930;28;4309;-58
2022/04/04 06:28:41;;;;;;;;;;;;;;;21.17;38.34;100617.88;4973342;28;4227;-59
2022/04/04 06:31:07;;;;;;;;;;;;;;;21.25;38.44;100613.16;4973064;28;4174;-62
2022/04/04 06:33:34;;;;;;;;;;;;;;;21.25;38.71;100607.38;4977762;28;4158;-61
2022/04/04 06:36:00;;;;;;;;;;;;;;;21.28;38.93;100614.72;4969501;28;4319;-60
2022/04/04 06:38:27;;;;;;;;;;;;;;;21.29;38.51;100610.44;4975532;28;5121;-61
2022/04/04 06:40:53;;;;;;;;;;;;;;;21.32;38.39;100596.84;4968856;28;4202;-62
2022/04/04 06:43:19;;;;;;;;;;;;;;;21.31;38.43;100596.09;4981052;28;4183;-61
2022/04/04 06:45:47;;;;;;;;;;;;;;;21.37;38.21;100591.97;4976372;28;4192;-61
2022/04/04 06:48:13;;;;;;;;;;;;;;;21.41;38.29;100584.25;4975649;28;4375;-60
2022/04/04 06:50:40;;;;;;;;;;;;;;;21.45;38.16;100589.44;4978348;28;4708;-59
2022/04/04 06:53:07;;;;;;;;;;;;;;;21.49;37.90;100580.97;4965798;28;4419;-59
2022/04/04 06:55:42;;;;;;;;;;;;;;;21.48;38.15;100582.34;4967888;28;4275;-59
2022/04/04 06:58:08;;;;;;;;;;;;;;;21.53;38.03;100578.97;4971264;28;4157;-59
2022/04/04 07:00:35;;;;;;;;;;;;;;;21.55;37.90;100575.41;4966677;28;4116;-59
2022/04/04 07:03:01;;;;;;;;;;;;;;;21.61;37.87;100572.75;4972639;28;3991;-60
2022/04/04 07:05:28;;;;;;;;;;;;;;;21.66;37.68;100568.59;4974492;28;5429;-59
2022/04/04 07:07:54;;;;;;;;;;;;;;;21.66;37.64;100559.97;4978438;28;4913;-58
2022/04/04 07:10:21;;;;;;;;;;;;;;;21.69;37.29;100555.78;4978848;28;4494;-59
2022/04/04 07:12:48;;;;;;;;;;;;;;;21.85;37.31;100549.84;4976458;28;4184;-58
2022/04/04 07:15:14;;;;;;;;;;;;;;;21.83;37.05;100546.88;4979416;28;4214;-61
2022/04/04 07:17:41;;;;;;;;;;;;;;;21.88;37.16;100548.50;4980143;28;4341;-59
2022/04/04 07:20:08;;;;;;;;;;;;;;;21.93;36.84;100555.88;4978996;28;4332;-59
2022/04/04 07:22:35;;;;;;;;;;;;;;;22.05;36.82;100537.53;4974520;28;4238;-57
2022/04/04 07:25:07;;;;;;;;;;;;;;;22.01;37.38;100538.13;4979599;28;4253;-59
2022/04/04 07:27:34;;;;;;;;;;;;;;;22.09;37.08;100515.34;4978236;28;4506;-57
2022/04/04 07:30:01;;;;;;;;;;;;;;;22.15;36.74;100524.22;4978779;28;4371;-58
2022/04/04 07:32:27;;;;;;;;;;;;;;;22.16;36.51;100511.25;4980572;28;4219;-55
2022/04/04 07:34:54;;;;;;;;;;;;;;;22.20;36.05;100512.81;4979899;28;4545;-57
2022/04/04 07:37:20;;;;;;;;;;;;;;;22.20;36.12;100507.03;4978342;28;4241;-57
2022/04/04 07:39:47;;;;;;;;;;;;;;;22.24;35.91;100499.28;4979971;28;5256;-57
2022/04/04 07:42:13;;;;;;;;;;;;;;;22.24;35.67;100510.06;4977648;28;5433;-55
2022/04/04 07:44:39;;;;;;;;;;;;;;;22.30;35.84;100501.63;4981116;28;5099;-54
2022/04/04 07:47:06;;;;;;;;;;;;;;;22.36;35.60;100496.78;4971515;28;4358;-56
2022/04/04 07:49:32;;;;;;;;;;;;;;;22.38;35.48;100487.47;4971839;28;4253;-49
2022/04/04 07:51:58;;;;;;;;;;;;;;;22.41;35.66;100477.47;4966341;28;4469;-56
2022/04/04 07:54:25;;;;;;;;;;;;;;;22.50;35.55;100482.09;4971101;28;4156;-56
2022/04/04 07:56:53;;;;;;;;;;;;;;;22.43;35.18;100480.41;4973136;28;5249;-58
2022/04/04 07:59:20;;;;;;;;;;;;;;;22.47;35.79;100468.25;4971784;28;4046;-53
2022/04/04 08:01:46;;;;;;;;;;;;;;;22.52;35.61;100487.91;4977358;28;4047;-62
2022/04/04 08:04:13;;;;;;;;;;;;;;;22.23;35.00;100465.34;4967911;28;4050;-59
2022/04/04 08:06:39;;;;;;;;;;;;;;;22.27;34.70;100453.94;4971120;28;4427;-59
2022/04/04 08:09:05;;;;;;;;;;;;;;;22.38;35.15;100441.31;4971680;28;4054;-58
2022/04/04 08:11:32;;;;;;;;;;;;;;;22.42;35.32;100440.69;4977174;28;4232;-58
2022/04/04 08:13:58;;;;;;;;;;;;;;;22.37;35.88;100436.94;4977883;28;4059;-57
2022/04/04 08:16:26;;;;;;;;;;;;;;;22.37;35.97;100436.94;4973735;28;5215;-58
2022/04/04 08:18:53;;;;;;;;;;;;;;;22.35;36.10;100439.78;4969779;28;4145;-59
2022/04/04 08:21:19;;;;;;;;;;;;;;;22.38;35.87;100435.56;4974253;28;4520;-59
2022/04/04 08:23:46;;;;;;;;;;;;;;;22.37;36.14;100436.94;4976696;28;4064;-58
2022/04/04 08:26:12;;;;;;;;;;;;;;;22.40;35.87;100431.97;4967972;28;4239;-59
2022/04/04 08:28:38;;;;;;;;;;;;;;;22.41;35.90;100427.69;4969235;28;3998;-59
2022/04/04 08:31:05;;;;;;;;;;;;;;;22.34;36.00;100423.88;4974814;28;4120;-60
2022/04/04 08:33:31;;;;;;;;;;;;;;;22.40;35.70;100415.41;4965945;28;4071;-58
2022/04/04 08:36:00;;;;;;;;;;;;;;;22.36;36.12;100409.53;4970451;28;4070;-59
2022/04/04 08:38:26;;;;;;;;;;;;;;;22.34;36.02;100401.53;4974803;28;4160;-58
2022/04/04 08:40:53;;;;;;;;;;;;;;;22.26;36.13;100394.78;4971995;28;4138;-61
2022/04/04 08:43:19;;;;;;;;;;;;;;;22.23;36.03;100396.84;4959442;28;5441;-61
2022/04/04 08:45:47;;;;;;;;;;;;;;;22.20;36.36;100383.03;4968978;28;4548;-61
2022/04/04 08:48:14;;;;;;;;;;;;;;;22.20;36.28;100383.78;4976737;28;4163;-61
2022/04/04 08:50:40;;;;;;;;;;;;;;;22.15;36.24;100351.19;4972009;28;4372;-59
2022/04/04 08:53:07;;;;;;;;;;;;;;;22.11;36.44;100353.94;4975135;28;4342;-59
2022/04/04 08:55:34;;;;;;;;;;;;;;;22.10;36.27;100360.38;4970047;28;4268;-59
2022/04/04 08:58:01;;;;;;;;;;;;;;;22.09;36.35;100359.63;4967177;28;4481;-59
2022/04/04 09:00:27;;;;;;;;;;;;;;;22.09;36.19;100344.50;4960481;28;4607;-59
2022/04/04 09:02:58;;;;;;;;;;;;;;;22.04;36.45;100346.50;4961779;28;4399;-59
2022/04/04 09:05:24;;;;;;;;;;;;;;;22.02;36.39;100332.03;4963411;28;5223;-58
2022/04/04 09:08:06;;;;;;;;;;;;;;;22.03;36.16;100321.97;4973548;28;3942;-58
2022/04/04 09:10:33;;;;;;;;;;;;;;;22.02;36.29;100326.25;4970735;28;4272;-57
2022/04/04 09:13:13;;;;;;;;;;;;;;;22.06;36.33;100319.88;4972112;28;4135;-55
2022/04/04 09:15:51;;;;;;;;;;;;;;;21.99;36.49;100310.31;4970771;28;4104;-56
2022/04/04 09:18:19;;;;;;;;;;;;;;;22.13;36.20;100307.88;4970786;28;4201;-57
2022/04/04 09:20:49;;;;;;;;;;;;;;;22.06;36.21;100297.56;4975034;28;4064;-56
2022/04/04 09:23:15;;;;;;;;;;;;;;;22.05;35.99;100284.53;4969304;28;4045;-56
2022/04/04 09:25:42;;;;;;;;;;;;;;;22.08;36.27;100286.09;4967677;28;4959;-57
2022/04/04 09:28:18;;;;;;;;;;;;;;;22.07;36.21;100273.06;4976023;28;4002;-55
2022/04/04 09:31:05;;;;;;;;;;;;;;;22.04;36.38;100256.41;4966354;28;4109;-54
2022/04/04 09:33:38;;;;;;;;;;;;;;;21.90;36.45;100265.38;4970019;28;4215;-57
2022/04/04 09:36:05;;;;;;;;;;;;;;;21.97;36.86;100243.97;4958030;28;4211;-56
2022/04/04 09:38:34;;;;;;;;;;;;;;;22.00;36.92;100245.47;4973158;28;5598;-56
2022/04/04 09:41:17;;;;;;;;;;;;;;;22.11;36.78;100235.72;4969144;28;4235;-62
2022/04/04 09:43:53;;;;;;;;;;;;;;;22.12;36.95;100228.53;4972149;28;4135;-58
2022/04/04 09:46:20;;;;;;;;;;;;;;;22.10;36.62;100216.94;4968035;28;4264;-58
2022/04/04 09:49:06;;;;;;;;;;;;;;;22.10;36.79;100211.16;4969653;28;4217;-58
2022/04/04 09:51:36;;;;;;;;;;;;;;;22.14;36.76;100202.63;4971400;28;4171;-58
2022/04/04 09:54:03;;;;;;;;;;;;;;;22.16;36.83;100207.75;4969726;28;4239;-60
2022/04/04 09:56:29;;;;;;;;;;;;;;;22.13;36.63;100192.53;4968285;28;4234;-60
2022/04/04 09:58:58;;;;;;;;;;;;;;;22.12;36.37;100191.03;4972242;28;5321;-60
2022/04/04 10:01:25;;;;;;;;;;;;;;;22.05;36.90;100166.34;4965262;28;4767;-58
2022/04/04 10:03:51;;;;;;;;;;;;;;;22.02;36.89;100164.09;4973327;28;4249;-59
2022/04/04 10:06:18;;;;;;;;;;;;;;;22.05;36.66;100169.22;4969785;28;5308;-58
2022/04/04 10:08:44;;;;;;;;;;;;;;;22.05;36.81;100160.56;4971932;28;5345;-57
2022/04/04 10:11:11;;;;;;;;;;;;;;;22.07;36.67;100154.13;4968428;28;5305;-58
2022/04/04 10:13:37;;;;;;;;;;;;;;;22.06;36.24;100141.88;4972542;28;5285;-57
2022/04/04 10:16:04;;;;;;;;;;;;;;;22.06;36.83;100133.22;4967454;28;4642;-57
2022/04/04 10:18:30;;;;;;;;;;;;;;;22.05;36.64;100133.91;4975391;28;5170;-57
2022/04/04 10:20:57;;;;;;;;;;;;;;;22.05;36.93;100117.31;4976881;28;4380;-55
2022/04/04 10:23:24;;;;;;;;;;;;;;;22.05;37.23;100117.31;4974643;28;5433;-59
2022/04/04 10:25:51;;;;;;;;;;;;;;;22.05;36.90;100105.78;4968212;28;4589;-57
2022/04/04 10:28:27;;;;;;;;;;;;;;;21.81;35.53;100093.63;4976266;28;5639;-55
2022/04/04 10:30:56;;;;;;;;;;;;;;;21.87;36.10;100091.59;4978188;28;5245;-52
2022/04/04 10:33:23;;;;;;;;;;;;;;;21.95;37.46;100079.59;4970217;28;4496;-57
2022/04/04 10:36:01;;;;;;;;;;;;;;;22.03;38.16;100067.53;4971162;28;4136;-57
2022/04/04 10:38:32;;;;;;;;;;;;;;;22.02;38.28;100071.84;4968919;28;4352;-58
2022/04/04 10:41:00;;;;;;;;;;;;;;;22.06;38.49;100058.28;4971052;28;4092;-58
2022/04/04 10:43:26;;;;;;;;;;;;;;;22.12;38.42;100060.56;4976725;28;4289;-59
2022/04/04 10:45:54;;;;;;;;;;;;;;;22.13;38.36;100054.13;4970730;28;4126;-59
2022/04/04 10:48:20;;;;;;;;;;;;;;;22.12;38.56;100041.13;4975549;28;4548;-58
2022/04/04 10:50:46;;;;;;;;;;;;;;;22.15;38.50;100045.53;4974009;28;4101;-57
2022/04/04 10:53:13;;;;;;;;;;;;;;;22.14;38.54;100032.53;4972684;28;4999;-58
2022/04/04 10:55:43;;;;;;;;;;;;;;;22.12;38.54;100040.38;4971573;28;4211;-58
2022/04/04 10:58:11;;;;;;;;;;;;;;;22.15;38.38;100028.25;4975731;28;4316;-59
2022/04/04 11:00:57;;;;;;;;;;;;;;;22.09;38.82;100002.13;4971979;28;4333;-59
2022/04/04 11:03:27;;;;;;;;;;;;;;;21.77;39.41;100004.88;4975382;28;4204;-57
2022/04/04 11:08:58;;;;;;;;;;;;;;;21.84;39.26;100008.66;4979075;28;4030;-57
2022/04/04 11:11:41;;;;;;;;;;;;;;;21.89;39.25;99992.94;4975812;28;4111;-53
2022/04/04 11:14:08;;;;;;;;;;;;;;;21.92;39.01;99988.69;4976956;28;3999;-59
2022/04/04 11:16:53;;;;;;;;;;;;;;;21.81;39.27;99993.47;4977080;28;4313;-50
2022/04/04 11:19:19;;;;;;;;;;;;;;;21.98;39.14;99980.22;4967201;28;4343;-58
2022/04/04 11:21:46;;;;;;;;;;;;;;;22.02;38.94;99977.44;4978010;28;4457;-58
2022/04/04 11:24:14;;;;;;;;;;;;;;;22.09;39.26;99978.34;4973796;28;4096;-59
2022/04/04 11:26:41;;;;;;;;;;;;;;;22.14;39.21;99969.09;4978773;28;4199;-56
2022/04/04 11:29:19;;;;;;;;;;;;;;;22.21;38.99;99960.59;4980882;28;5289;-58
2022/04/04 11:31:46;;;;;;;;;;;;;;;22.27;39.05;99960.78;4978144;28;4242;-57
2022/04/04 11:34:12;;;;;;;;;;;;;;;22.27;39.04;99940.59;4981467;28;4371;-56
2022/04/04 11:36:39;;;;;;;;;;;;;;;22.31;38.83;99940.66;4980810;28;4041;-56
2022/04/04 11:39:08;;;;;;;;;;;;;;;22.32;38.82;99945.75;4980963;28;4344;-57
2022/04/04 11:41:46;;;;;;;;;;;;;;;22.34;38.57;99930.66;4976569;28;4355;-58
2022/04/04 11:44:22;;;;;;;;;;;;;;;22.36;38.31;99930.72;4972515;28;4206;-56
2022/04/04 11:47:04;;;;;;;;;;;;;;;22.38;38.59;99939.41;4971856;28;5295;-56
2022/04/04 11:49:37;;;;;;;;;;;;;;;22.38;38.87;99928.59;4978478;28;4311;-56
2022/04/04 11:52:06;;;;;;;;;;;;;;;22.39;38.95;99923.56;4973544;28;5315;-57
2022/04/04 11:54:39;;;;;;;;;;;;;;;22.38;38.74;99910.56;4971573;28;3998;-57
2022/04/04 11:57:06;;;;;;;;;;;;;;;22.39;38.44;99923.56;4969698;28;4270;-57
2022/04/04 11:59:33;;;;;;;;;;;;;;;22.41;38.46;99897.66;4973245;28;4323;-58
2022/04/04 12:02:02;;;;;;;;;;;;;;;22.43;38.47;99917.91;4975936;28;4208;-54
2022/04/04 12:04:29;;;;;;;;;;;;;;;22.42;38.33;99907.75;4978503;28;5420;-56
2022/04/04 12:06:56;;;;;;;;;;;;;;;22.40;37.95;99904.84;4976126;28;4205;-57
2022/04/04 12:09:29;;;;;;;;;;;;;;;22.45;38.03;99897.75;4977358;28;4248;-57
2022/04/04 12:12:11;;;;;;;;;;;;;;;22.45;38.59;99909.28;4973895;28;4274;-54
2022/04/04 12:14:40;;;;;;;;;;;;;;;22.47;38.35;99900.69;4975665;28;4195;-53
2022/04/04 12:17:07;;;;;;;;;;;;;;;22.47;38.33;99894.91;4979093;28;4241;-56
2022/04/04 12:19:46;;;;;;;;;;;;;;;22.46;38.50;99881.91;4980361;28;4216;-55
2022/04/04 12:25:01;;;;;;;;;;;;;;;22.48;37.86;99881.94;4977319;28;4193;-56
2022/04/04 12:27:29;;;;;;;;;;;;;;;22.47;37.65;99871.84;4970585;28;4195;-57
2022/04/04 12:29:59;;;;;;;;;;;;;;;22.47;37.89;99873.97;4971743;28;4168;-58
2022/04/04 12:32:25;;;;;;;;;;;;;;;22.47;37.81;99876.84;4975125;28;4186;-58
2022/04/04 12:34:58;;;;;;;;;;;;;;;22.48;38.20;99873.28;4975701;28;4166;-58
2022/04/04 12:37:38;;;;;;;;;;;;;;;22.32;38.22;99867.16;4969158;28;5480;-58
2022/04/04 12:40:13;;;;;;;;;;;;;;;22.38;38.26;99858.66;4970068;28;4146;-60
2022/04/04 12:42:39;;;;;;;;;;;;;;;22.42;38.26;99846.47;4972446;28;4395;-58
2022/04/04 12:45:06;;;;;;;;;;;;;;;22.47;38.21;99843.00;4974240;28;4090;-58
2022/04/04 12:47:32;;;;;;;;;;;;;;;22.45;38.13;99857.38;4970576;28;4238;-61
2022/04/04 12:50:14;;;;;;;;;;;;;;;22.49;38.30;99845.91;4973322;28;4596;-59
2022/04/04 12:52:59;;;;;;;;;;;;;;;22.50;38.51;99847.38;4967231;28;4050;-60
2022/04/04 12:55:26;;;;;;;;;;;;;;;22.49;38.47;99839.41;4967733;28;5197;-58
2022/04/04 12:57:53;;;;;;;;;;;;;;;22.50;38.47;99841.59;4968060;28;4185;-57
2022/04/04 13:00:27;;;;;;;;;;;;;;;22.50;38.38;99821.41;4968442;28;4162;-59